Impacts TAF Board INFO
FOR SITUATIONAL AWARENESS. NOT TO BE USED FOR FLIGHT PLANNING PURPOSES.
IDs:

KCVG - Cincinnati Intl, KY, US

Issued at 1132 UTC 19 Jan 2018
Updated at 1317 UTC 19 Jan 2018
Potential Impact None Slight Moderate High
Time<<20/02Z 20/03Z 20/04Z 20/05Z 20/06Z 20/07Z 20/08Z 20/09Z 20/10Z 20/11Z 20/12Z 20/13Z 20/14Z>>
Type PRVL PRVL PRVL PRVL PRVL PRVL PRVL PRVL PRVL PRVL
  [TEMP]  
PRVL
  [TEMP]  
PRVL
  [TEMP]  
PRVL
VIS >6 >6 >6 >6 >6 >6 >6 >6 >6 >6 >6 >6 >6
CIG -- -- -- -- -- -- -- -- -- 22
  [22]  
22
  [22]  
22
  [22]  
22
Cover SCT SCT SCT SCT SCT SCT SCT SCT SCT BKN
  [SCT]  
BKN
  [SCT]  
BKN
  [SCT]  
BKN
FltCat VFR VFR VFR VFR VFR VFR VFR VFR VFR MVFR
  [MVFR]  
MVFR
  [MVFR]  
MVFR
  [MVFR]  
MVFR
WX -- -- -- -- -- -- -- -- -- --
  [--]  
--
  [--]  
--
  [--]  
--
WDir 220 220 220 220 220 220 220 220 220 210
[210]
210
[210]
210
[210]
210
WSpd 11 11 11 11 11 11 11 11 11 10
  [10]  
10
  [10]  
10
  [10]  
10
WGst -- -- -- -- -- -- -- -- -- --
  [--]  
--
  [--]  
--
  [--]  
--

Raw TAF
KCVG 191132Z 1912/2018 21008KT P6SM SKC
  FM191500 22011KT P6SM SCT250
  FM201100 21010KT P6SM BKN022
  TEMPO 2011/2014 SCT022


METAR Board
Radar Display
Forecast Discussion

FOR SITUATIONAL AWARENESS. NOT TO BE USED FOR FLIGHT PLANNING PURPOSES.